sensor_id;sensor_type;location;lat;lon;timestamp;P1;durP1;ratioP1;P2;durP2;ratioP2
48627;SDS011;34424;52.234;6.500;2022-10-13T00:01:56;23.60;;;15.57;;
48627;SDS011;34424;52.234;6.500;2022-10-13T00:06:59;24.40;;;15.68;;
48627;SDS011;34424;52.234;6.500;2022-10-13T00:12:02;20.58;;;14.60;;
48627;SDS011;34424;52.234;6.500;2022-10-13T00:17:07;22.55;;;15.18;;
48627;SDS011;34424;52.234;6.500;2022-10-13T00:22:10;24.10;;;14.80;;
48627;SDS011;34424;52.234;6.500;2022-10-13T00:27:13;19.95;;;14.55;;
48627;SDS011;34424;52.234;6.500;2022-10-13T00:32:17;24.15;;;14.43;;
48627;SDS011;34424;52.234;6.500;2022-10-13T00:37:20;22.33;;;15.23;;
48627;SDS011;34424;52.234;6.500;2022-10-13T00:47:49;21.48;;;14.00;;
48627;SDS011;34424;52.234;6.500;2022-10-13T00:52:53;20.40;;;13.95;;
48627;SDS011;34424;52.234;6.500;2022-10-13T00:57:58;24.45;;;15.18;;
48627;SDS011;34424;52.234;6.500;2022-10-13T01:03:07;19.33;;;14.65;;
48627;SDS011;34424;52.234;6.500;2022-10-13T01:08:09;22.02;;;14.27;;
48627;SDS011;34424;52.234;6.500;2022-10-13T01:13:13;20.77;;;14.07;;
48627;SDS011;34424;52.234;6.500;2022-10-13T01:18:21;24.70;;;14.75;;
48627;SDS011;34424;52.234;6.500;2022-10-13T01:23:39;20.75;;;14.27;;
48627;SDS011;34424;52.234;6.500;2022-10-13T01:28:51;23.77;;;14.75;;
48627;SDS011;34424;52.234;6.500;2022-10-13T01:33:59;21.02;;;14.15;;
48627;SDS011;34424;52.234;6.500;2022-10-13T01:39:04;25.00;;;14.48;;
48627;SDS011;34424;52.234;6.500;2022-10-13T01:44:09;22.02;;;14.45;;
48627;SDS011;34424;52.234;6.500;2022-10-13T01:49:18;22.60;;;14.95;;
48627;SDS011;34424;52.234;6.500;2022-10-13T01:54:21;21.65;;;14.07;;
48627;SDS011;34424;52.234;6.500;2022-10-13T01:59:24;22.77;;;15.13;;
48627;SDS011;34424;52.234;6.500;2022-10-13T02:04:33;23.67;;;14.77;;
48627;SDS011;34424;52.234;6.500;2022-10-13T02:09:40;20.48;;;15.82;;
48627;SDS011;34424;52.234;6.500;2022-10-13T02:14:44;24.67;;;16.13;;
48627;SDS011;34424;52.234;6.500;2022-10-13T02:19:49;25.25;;;16.08;;
48627;SDS011;34424;52.234;6.500;2022-10-13T02:24:52;22.40;;;14.85;;
48627;SDS011;34424;52.234;6.500;2022-10-13T02:29:55;23.02;;;16.90;;
48627;SDS011;34424;52.234;6.500;2022-10-13T02:35:00;27.15;;;15.65;;
48627;SDS011;34424;52.234;6.500;2022-10-13T02:40:03;22.25;;;15.50;;
48627;SDS011;34424;52.234;6.500;2022-10-13T02:45:06;25.40;;;17.23;;
48627;SDS011;34424;52.234;6.500;2022-10-13T02:50:10;27.35;;;17.20;;
48627;SDS011;34424;52.234;6.500;2022-10-13T02:55:13;22.92;;;16.35;;
48627;SDS011;34424;52.234;6.500;2022-10-13T03:00:16;24.55;;;16.85;;
48627;SDS011;34424;52.234;6.500;2022-10-13T03:05:19;25.60;;;18.13;;
48627;SDS011;34424;52.234;6.500;2022-10-13T03:10:22;24.55;;;17.40;;
48627;SDS011;34424;52.234;6.500;2022-10-13T03:15:24;30.67;;;16.77;;
48627;SDS011;34424;52.234;6.500;2022-10-13T03:20:28;23.70;;;17.60;;
48627;SDS011;34424;52.234;6.500;2022-10-13T03:25:31;26.27;;;17.38;;
48627;SDS011;34424;52.234;6.500;2022-10-13T03:30:33;25.48;;;18.05;;
48627;SDS011;34424;52.234;6.500;2022-10-13T03:35:37;27.48;;;18.67;;
48627;SDS011;34424;52.234;6.500;2022-10-13T03:40:39;25.17;;;18.42;;
48627;SDS011;34424;52.234;6.500;2022-10-13T03:45:42;27.60;;;17.75;;
48627;SDS011;34424;52.234;6.500;2022-10-13T03:50:46;27.30;;;17.83;;
48627;SDS011;34424;52.234;6.500;2022-10-13T03:55:48;26.65;;;18.27;;
48627;SDS011;34424;52.234;6.500;2022-10-13T04:00:51;24.85;;;17.92;;
48627;SDS011;34424;52.234;6.500;2022-10-13T04:05:57;27.90;;;19.38;;
48627;SDS011;34424;52.234;6.500;2022-10-13T04:11:02;22.83;;;17.33;;
48627;SDS011;34424;52.234;6.500;2022-10-13T04:16:06;25.80;;;18.23;;
48627;SDS011;34424;52.234;6.500;2022-10-13T04:21:11;27.17;;;18.85;;
48627;SDS011;34424;52.234;6.500;2022-10-13T04:26:14;24.30;;;18.50;;
48627;SDS011;34424;52.234;6.500;2022-10-13T04:36:23;27.80;;;19.25;;
48627;SDS011;34424;52.234;6.500;2022-10-13T04:41:26;32.65;;;19.65;;
48627;SDS011;34424;52.234;6.500;2022-10-13T04:46:28;27.23;;;19.42;;
48627;SDS011;34424;52.234;6.500;2022-10-13T04:51:32;26.17;;;19.27;;
48627;SDS011;34424;52.234;6.500;2022-10-13T04:56:35;28.60;;;19.23;;
48627;SDS011;34424;52.234;6.500;2022-10-13T05:01:37;25.23;;;19.03;;
48627;SDS011;34424;52.234;6.500;2022-10-13T05:06:41;29.77;;;19.95;;
48627;SDS011;34424;52.234;6.500;2022-10-13T05:12:04;33.37;;;20.73;;
48627;SDS011;34424;52.234;6.500;2022-10-13T05:17:06;29.07;;;20.73;;
48627;SDS011;34424;52.234;6.500;2022-10-13T05:22:10;32.05;;;20.73;;
48627;SDS011;34424;52.234;6.500;2022-10-13T05:27:12;29.05;;;19.13;;
48627;SDS011;34424;52.234;6.500;2022-10-13T05:32:15;29.63;;;20.50;;
48627;SDS011;34424;52.234;6.500;2022-10-13T05:37:19;30.67;;;21.00;;
48627;SDS011;34424;52.234;6.500;2022-10-13T05:42:22;31.90;;;19.88;;
48627;SDS011;34424;52.234;6.500;2022-10-13T05:47:25;29.77;;;19.63;;
48627;SDS011;34424;52.234;6.500;2022-10-13T05:52:30;27.70;;;20.00;;
48627;SDS011;34424;52.234;6.500;2022-10-13T05:57:34;32.45;;;21.75;;
48627;SDS011;34424;52.234;6.500;2022-10-13T06:02:37;29.88;;;20.63;;
48627;SDS011;34424;52.234;6.500;2022-10-13T06:07:42;34.22;;;22.45;;
48627;SDS011;34424;52.234;6.500;2022-10-13T06:12:46;29.08;;;20.85;;
48627;SDS011;34424;52.234;6.500;2022-10-13T06:17:48;31.87;;;22.27;;
48627;SDS011;34424;52.234;6.500;2022-10-13T06:22:52;32.13;;;22.30;;
48627;SDS011;34424;52.234;6.500;2022-10-13T06:27:55;31.77;;;20.42;;
48627;SDS011;34424;52.234;6.500;2022-10-13T06:32:57;28.92;;;19.67;;
48627;SDS011;34424;52.234;6.500;2022-10-13T06:38:01;30.95;;;19.23;;
48627;SDS011;34424;52.234;6.500;2022-10-13T06:43:03;26.20;;;19.10;;
48627;SDS011;34424;52.234;6.500;2022-10-13T06:48:06;26.10;;;18.85;;
48627;SDS011;34424;52.234;6.500;2022-10-13T06:53:09;28.20;;;19.83;;
48627;SDS011;34424;52.234;6.500;2022-10-13T06:58:12;23.40;;;17.77;;
48627;SDS011;34424;52.234;6.500;2022-10-13T07:03:14;24.90;;;18.02;;
48627;SDS011;34424;52.234;6.500;2022-10-13T07:08:18;23.92;;;16.48;;
48627;SDS011;34424;52.234;6.500;2022-10-13T07:13:21;26.33;;;16.55;;
48627;SDS011;34424;52.234;6.500;2022-10-13T07:18:23;22.83;;;17.17;;
48627;SDS011;34424;52.234;6.500;2022-10-13T07:23:28;25.15;;;17.50;;
48627;SDS011;34424;52.234;6.500;2022-10-13T07:28:31;25.02;;;18.05;;
48627;SDS011;34424;52.234;6.500;2022-10-13T07:33:33;23.47;;;17.07;;
48627;SDS011;34424;52.234;6.500;2022-10-13T07:38:37;29.05;;;17.77;;
48627;SDS011;34424;52.234;6.500;2022-10-13T07:43:39;26.60;;;17.80;;
48627;SDS011;34424;52.234;6.500;2022-10-13T07:48:42;24.95;;;17.95;;
48627;SDS011;34424;52.234;6.500;2022-10-13T07:53:45;25.17;;;17.15;;
48627;SDS011;34424;52.234;6.500;2022-10-13T07:58:48;20.42;;;14.90;;
48627;SDS011;34424;52.234;6.500;2022-10-13T08:03:53;21.35;;;15.85;;
48627;SDS011;34424;52.234;6.500;2022-10-13T08:08:57;20.45;;;15.15;;
48627;SDS011;34424;52.234;6.500;2022-10-13T08:14:00;23.52;;;15.88;;
48627;SDS011;34424;52.234;6.500;2022-10-13T08:19:04;21.42;;;15.75;;
48627;SDS011;34424;52.234;6.500;2022-10-13T08:24:08;20.47;;;15.17;;
48627;SDS011;34424;52.234;6.500;2022-10-13T08:29:12;23.40;;;15.70;;
48627;SDS011;34424;52.234;6.500;2022-10-13T08:34:23;20.77;;;14.75;;
48627;SDS011;34424;52.234;6.500;2022-10-13T08:39:26;20.50;;;15.33;;
48627;SDS011;34424;52.234;6.500;2022-10-13T08:44:30;25.40;;;16.65;;
48627;SDS011;34424;52.234;6.500;2022-10-13T08:49:56;23.85;;;15.55;;
48627;SDS011;34424;52.234;6.500;2022-10-13T08:55:04;23.35;;;16.45;;
48627;SDS011;34424;52.234;6.500;2022-10-13T09:00:08;27.25;;;18.10;;
48627;SDS011;34424;52.234;6.500;2022-10-13T09:05:12;26.65;;;18.40;;
48627;SDS011;34424;52.234;6.500;2022-10-13T09:10:18;28.45;;;19.50;;
48627;SDS011;34424;52.234;6.500;2022-10-13T09:15:20;29.92;;;18.63;;
48627;SDS011;34424;52.234;6.500;2022-10-13T09:20:24;24.05;;;17.23;;
48627;SDS011;34424;52.234;6.500;2022-10-13T09:25:29;28.92;;;17.92;;
48627;SDS011;34424;52.234;6.500;2022-10-13T09:30:39;26.90;;;16.45;;
48627;SDS011;34424;52.234;6.500;2022-10-13T09:35:43;26.33;;;16.27;;
48627;SDS011;34424;52.234;6.500;2022-10-13T09:40:56;25.60;;;16.90;;
48627;SDS011;34424;52.234;6.500;2022-10-13T09:46:00;23.77;;;16.35;;
48627;SDS011;34424;52.234;6.500;2022-10-13T09:51:03;26.38;;;16.40;;
48627;SDS011;34424;52.234;6.500;2022-10-13T09:56:09;24.50;;;15.10;;
48627;SDS011;34424;52.234;6.500;2022-10-13T10:01:18;26.15;;;14.95;;
48627;SDS011;34424;52.234;6.500;2022-10-13T10:06:21;20.90;;;13.80;;
48627;SDS011;34424;52.234;6.500;2022-10-13T10:11:30;25.58;;;13.65;;
48627;SDS011;34424;52.234;6.500;2022-10-13T10:16:35;19.73;;;13.85;;
48627;SDS011;34424;52.234;6.500;2022-10-13T10:21:40;21.27;;;12.85;;
48627;SDS011;34424;52.234;6.500;2022-10-13T10:26:49;16.10;;;11.48;;
48627;SDS011;34424;52.234;6.500;2022-10-13T10:32:03;16.27;;;11.60;;
48627;SDS011;34424;52.234;6.500;2022-10-13T10:37:17;19.20;;;12.45;;
48627;SDS011;34424;52.234;6.500;2022-10-13T10:42:37;17.58;;;11.88;;
48627;SDS011;34424;52.234;6.500;2022-10-13T10:47:48;13.45;;;9.90;;
48627;SDS011;34424;52.234;6.500;2022-10-13T10:53:00;14.13;;;10.52;;
48627;SDS011;34424;52.234;6.500;2022-10-13T10:58:13;16.10;;;9.45;;
48627;SDS011;34424;52.234;6.500;2022-10-13T11:03:18;17.00;;;9.40;;
48627;SDS011;34424;52.234;6.500;2022-10-13T11:08:24;15.20;;;9.85;;
48627;SDS011;34424;52.234;6.500;2022-10-13T11:13:28;15.70;;;10.30;;
48627;SDS011;34424;52.234;6.500;2022-10-13T11:24:07;15.07;;;8.25;;
48627;SDS011;34424;52.234;6.500;2022-10-13T11:34:52;17.50;;;9.73;;
48627;SDS011;34424;52.234;6.500;2022-10-13T11:45:25;15.10;;;9.68;;
48627;SDS011;34424;52.234;6.500;2022-10-13T11:50:33;16.58;;;8.18;;
48627;SDS011;34424;52.234;6.500;2022-10-13T11:55:41;15.98;;;9.48;;
48627;SDS011;34424;52.234;6.500;2022-10-13T12:00:54;16.27;;;9.15;;
48627;SDS011;34424;52.234;6.500;2022-10-13T12:05:59;15.60;;;8.97;;
48627;SDS011;34424;52.234;6.500;2022-10-13T12:11:02;16.02;;;9.77;;
48627;SDS011;34424;52.234;6.500;2022-10-13T12:16:07;18.23;;;10.35;;
48627;SDS011;34424;52.234;6.500;2022-10-13T12:21:12;17.53;;;11.20;;
48627;SDS011;34424;52.234;6.500;2022-10-13T12:26:15;18.23;;;13.05;;
48627;SDS011;34424;52.234;6.500;2022-10-13T12:31:19;19.00;;;11.55;;
48627;SDS011;34424;52.234;6.500;2022-10-13T12:36:26;17.50;;;12.30;;
48627;SDS011;34424;52.234;6.500;2022-10-13T12:41:31;24.65;;;13.82;;
48627;SDS011;34424;52.234;6.500;2022-10-13T12:46:34;24.27;;;15.45;;
48627;SDS011;34424;52.234;6.500;2022-10-13T12:51:38;27.52;;;17.10;;
48627;SDS011;34424;52.234;6.500;2022-10-13T12:56:41;26.10;;;17.90;;
48627;SDS011;34424;52.234;6.500;2022-10-13T13:01:43;32.33;;;19.38;;
48627;SDS011;34424;52.234;6.500;2022-10-13T13:06:54;28.45;;;19.27;;
48627;SDS011;34424;52.234;6.500;2022-10-13T13:12:04;31.08;;;19.00;;
48627;SDS011;34424;52.234;6.500;2022-10-13T13:17:10;29.30;;;20.60;;
48627;SDS011;34424;52.234;6.500;2022-10-13T13:22:14;29.90;;;19.40;;
48627;SDS011;34424;52.234;6.500;2022-10-13T13:27:17;32.85;;;21.20;;
48627;SDS011;34424;52.234;6.500;2022-10-13T13:32:22;32.22;;;20.63;;
48627;SDS011;34424;52.234;6.500;2022-10-13T13:37:27;33.45;;;21.25;;
48627;SDS011;34424;52.234;6.500;2022-10-13T13:42:31;34.13;;;22.00;;
48627;SDS011;34424;52.234;6.500;2022-10-13T13:47:33;35.60;;;22.03;;
48627;SDS011;34424;52.234;6.500;2022-10-13T13:52:37;35.60;;;22.80;;
48627;SDS011;34424;52.234;6.500;2022-10-13T13:57:40;35.55;;;21.75;;
48627;SDS011;34424;52.234;6.500;2022-10-13T14:02:43;26.85;;;20.52;;
48627;SDS011;34424;52.234;6.500;2022-10-13T14:12:49;31.92;;;19.05;;
48627;SDS011;34424;52.234;6.500;2022-10-13T14:17:52;32.88;;;18.73;;
48627;SDS011;34424;52.234;6.500;2022-10-13T14:22:57;29.77;;;18.15;;
48627;SDS011;34424;52.234;6.500;2022-10-13T14:28:01;33.97;;;21.05;;
48627;SDS011;34424;52.234;6.500;2022-10-13T14:33:03;30.10;;;19.80;;
48627;SDS011;34424;52.234;6.500;2022-10-13T14:38:05;28.97;;;20.10;;
48627;SDS011;34424;52.234;6.500;2022-10-13T14:43:09;33.78;;;21.67;;
48627;SDS011;34424;52.234;6.500;2022-10-13T14:48:12;31.73;;;20.67;;
48627;SDS011;34424;52.234;6.500;2022-10-13T14:53:15;35.03;;;22.27;;
48627;SDS011;34424;52.234;6.500;2022-10-13T14:58:19;32.77;;;21.73;;
48627;SDS011;34424;52.234;6.500;2022-10-13T15:03:21;36.70;;;22.55;;
48627;SDS011;34424;52.234;6.500;2022-10-13T15:08:24;37.60;;;24.02;;
48627;SDS011;34424;52.234;6.500;2022-10-13T15:13:28;36.27;;;22.30;;
48627;SDS011;34424;52.234;6.500;2022-10-13T15:18:30;35.72;;;24.23;;
48627;SDS011;34424;52.234;6.500;2022-10-13T15:23:33;38.00;;;25.75;;
48627;SDS011;34424;52.234;6.500;2022-10-13T15:28:38;36.75;;;22.58;;
48627;SDS011;34424;52.234;6.500;2022-10-13T15:33:41;37.38;;;23.67;;
48627;SDS011;34424;52.234;6.500;2022-10-13T15:38:43;34.55;;;22.13;;
48627;SDS011;34424;52.234;6.500;2022-10-13T15:43:47;39.40;;;24.93;;
48627;SDS011;34424;52.234;6.500;2022-10-13T15:48:50;34.05;;;22.45;;
48627;SDS011;34424;52.234;6.500;2022-10-13T15:58:57;34.60;;;23.20;;
48627;SDS011;34424;52.234;6.500;2022-10-13T16:04:00;41.47;;;25.02;;
48627;SDS011;34424;52.234;6.500;2022-10-13T16:09:02;34.90;;;23.03;;
48627;SDS011;34424;52.234;6.500;2022-10-13T16:14:06;31.57;;;23.13;;
48627;SDS011;34424;52.234;6.500;2022-10-13T16:19:09;41.72;;;24.40;;
48627;SDS011;34424;52.234;6.500;2022-10-13T16:24:12;39.00;;;24.92;;
48627;SDS011;34424;52.234;6.500;2022-10-13T16:29:15;34.08;;;22.98;;
48627;SDS011;34424;52.234;6.500;2022-10-13T16:34:18;32.95;;;24.98;;
48627;SDS011;34424;52.234;6.500;2022-10-13T16:39:20;37.13;;;25.75;;
48627;SDS011;34424;52.234;6.500;2022-10-13T16:44:26;35.97;;;25.33;;
48627;SDS011;34424;52.234;6.500;2022-10-13T16:49:28;35.53;;;24.30;;
48627;SDS011;34424;52.234;6.500;2022-10-13T16:54:30;38.07;;;25.07;;
48627;SDS011;34424;52.234;6.500;2022-10-13T16:59:35;36.97;;;24.83;;
48627;SDS011;34424;52.234;6.500;2022-10-13T17:04:37;36.58;;;24.88;;
48627;SDS011;34424;52.234;6.500;2022-10-13T17:09:39;39.33;;;26.17;;
48627;SDS011;34424;52.234;6.500;2022-10-13T17:14:43;44.47;;;27.47;;
48627;SDS011;34424;52.234;6.500;2022-10-13T17:19:46;47.20;;;28.77;;
48627;SDS011;34424;52.234;6.500;2022-10-13T17:24:48;44.23;;;28.70;;
48627;SDS011;34424;52.234;6.500;2022-10-13T17:29:52;43.35;;;28.73;;
48627;SDS011;34424;52.234;6.500;2022-10-13T17:34:55;44.15;;;30.08;;
48627;SDS011;34424;52.234;6.500;2022-10-13T17:39:57;44.90;;;29.75;;
48627;SDS011;34424;52.234;6.500;2022-10-13T17:45:01;51.30;;;31.63;;
48627;SDS011;34424;52.234;6.500;2022-10-13T17:50:04;44.88;;;30.73;;
48627;SDS011;34424;52.234;6.500;2022-10-13T17:55:08;50.67;;;32.45;;
48627;SDS011;34424;52.234;6.500;2022-10-13T18:00:12;55.08;;;34.13;;
48627;SDS011;34424;52.234;6.500;2022-10-13T18:05:16;55.92;;;36.00;;
48627;SDS011;34424;52.234;6.500;2022-10-13T18:10:18;60.58;;;36.97;;
48627;SDS011;34424;52.234;6.500;2022-10-13T18:15:22;65.00;;;41.40;;
48627;SDS011;34424;52.234;6.500;2022-10-13T18:20:25;66.25;;;40.22;;
48627;SDS011;34424;52.234;6.500;2022-10-13T18:25:28;68.03;;;42.25;;
48627;SDS011;34424;52.234;6.500;2022-10-13T18:30:35;64.95;;;39.83;;
48627;SDS011;34424;52.234;6.500;2022-10-13T18:35:38;63.97;;;38.95;;
48627;SDS011;34424;52.234;6.500;2022-10-13T18:40:40;59.77;;;40.87;;
48627;SDS011;34424;52.234;6.500;2022-10-13T18:45:44;68.28;;;42.83;;
48627;SDS011;34424;52.234;6.500;2022-10-13T18:50:48;79.68;;;47.75;;
48627;SDS011;34424;52.234;6.500;2022-10-13T19:00:58;61.78;;;38.90;;
48627;SDS011;34424;52.234;6.500;2022-10-13T19:06:01;70.85;;;41.13;;
48627;SDS011;34424;52.234;6.500;2022-10-13T19:11:10;67.50;;;42.47;;
48627;SDS011;34424;52.234;6.500;2022-10-13T19:16:15;64.65;;;37.95;;
48627;SDS011;34424;52.234;6.500;2022-10-13T19:21:18;63.25;;;37.78;;
48627;SDS011;34424;52.234;6.500;2022-10-13T19:26:21;55.85;;;36.90;;
48627;SDS011;34424;52.234;6.500;2022-10-13T19:31:30;63.80;;;39.30;;
48627;SDS011;34424;52.234;6.500;2022-10-13T19:36:34;64.07;;;41.50;;
48627;SDS011;34424;52.234;6.500;2022-10-13T19:41:38;67.88;;;41.92;;
48627;SDS011;34424;52.234;6.500;2022-10-13T19:46:42;76.68;;;43.25;;
48627;SDS011;34424;52.234;6.500;2022-10-13T19:51:46;81.63;;;44.88;;
48627;SDS011;34424;52.234;6.500;2022-10-13T19:56:50;74.40;;;44.33;;
48627;SDS011;34424;52.234;6.500;2022-10-13T20:01:53;80.57;;;46.20;;
48627;SDS011;34424;52.234;6.500;2022-10-13T20:06:56;75.38;;;46.92;;
48627;SDS011;34424;52.234;6.500;2022-10-13T20:11:59;82.70;;;45.15;;
48627;SDS011;34424;52.234;6.500;2022-10-13T20:17:02;83.72;;;45.92;;
48627;SDS011;34424;52.234;6.500;2022-10-13T20:22:05;77.60;;;47.10;;
48627;SDS011;34424;52.234;6.500;2022-10-13T20:27:07;76.88;;;44.30;;
48627;SDS011;34424;52.234;6.500;2022-10-13T20:32:11;76.97;;;45.55;;
48627;SDS011;34424;52.234;6.500;2022-10-13T20:37:15;76.32;;;44.45;;
48627;SDS011;34424;52.234;6.500;2022-10-13T20:42:17;69.97;;;43.87;;
48627;SDS011;34424;52.234;6.500;2022-10-13T20:47:21;82.67;;;45.77;;
48627;SDS011;34424;52.234;6.500;2022-10-13T20:52:24;75.72;;;44.78;;
48627;SDS011;34424;52.234;6.500;2022-10-13T20:57:26;80.77;;;44.83;;
48627;SDS011;34424;52.234;6.500;2022-10-13T21:02:30;68.73;;;42.47;;
48627;SDS011;34424;52.234;6.500;2022-10-13T21:12:59;72.05;;;43.03;;
48627;SDS011;34424;52.234;6.500;2022-10-13T21:18:03;77.27;;;44.93;;
48627;SDS011;34424;52.234;6.500;2022-10-13T21:23:06;67.50;;;40.88;;
48627;SDS011;34424;52.234;6.500;2022-10-13T21:28:09;71.95;;;41.97;;
48627;SDS011;34424;52.234;6.500;2022-10-13T21:33:13;74.30;;;44.72;;
48627;SDS011;34424;52.234;6.500;2022-10-13T21:38:15;73.75;;;43.95;;
48627;SDS011;34424;52.234;6.500;2022-10-13T21:43:17;73.13;;;41.20;;
48627;SDS011;34424;52.234;6.500;2022-10-13T21:48:21;71.80;;;40.83;;
48627;SDS011;34424;52.234;6.500;2022-10-13T21:53:24;78.93;;;44.50;;
48627;SDS011;34424;52.234;6.500;2022-10-13T21:58:26;72.07;;;40.60;;
48627;SDS011;34424;52.234;6.500;2022-10-13T22:03:30;79.20;;;41.30;;
48627;SDS011;34424;52.234;6.500;2022-10-13T22:08:34;80.85;;;41.03;;
48627;SDS011;34424;52.234;6.500;2022-10-13T22:13:39;78.55;;;39.90;;
48627;SDS011;34424;52.234;6.500;2022-10-13T22:18:43;77.33;;;40.80;;
48627;SDS011;34424;52.234;6.500;2022-10-13T22:23:45;68.28;;;36.83;;
48627;SDS011;34424;52.234;6.500;2022-10-13T22:28:48;60.40;;;34.63;;
48627;SDS011;34424;52.234;6.500;2022-10-13T22:38:56;57.08;;;32.00;;
48627;SDS011;34424;52.234;6.500;2022-10-13T22:43:59;68.13;;;34.55;;
48627;SDS011;34424;52.234;6.500;2022-10-13T22:49:02;64.60;;;32.15;;
48627;SDS011;34424;52.234;6.500;2022-10-13T22:54:05;61.33;;;31.53;;
48627;SDS011;34424;52.234;6.500;2022-10-13T22:59:08;52.38;;;30.10;;
48627;SDS011;34424;52.234;6.500;2022-10-13T23:04:10;59.53;;;32.10;;
48627;SDS011;34424;52.234;6.500;2022-10-13T23:09:14;49.97;;;28.23;;
48627;SDS011;34424;52.234;6.500;2022-10-13T23:14:17;46.35;;;25.60;;
48627;SDS011;34424;52.234;6.500;2022-10-13T23:19:19;44.10;;;26.05;;
48627;SDS011;34424;52.234;6.500;2022-10-13T23:24:23;46.33;;;26.15;;
48627;SDS011;34424;52.234;6.500;2022-10-13T23:29:25;42.58;;;24.20;;
48627;SDS011;34424;52.234;6.500;2022-10-13T23:34:28;45.10;;;26.33;;
48627;SDS011;34424;52.234;6.500;2022-10-13T23:39:32;48.43;;;25.83;;
48627;SDS011;34424;52.234;6.500;2022-10-13T23:44:34;40.53;;;22.67;;
48627;SDS011;34424;52.234;6.500;2022-10-13T23:49:36;45.72;;;23.80;;
48627;SDS011;34424;52.234;6.500;2022-10-13T23:54:40;39.90;;;23.27;;
48627;SDS011;34424;52.234;6.500;2022-10-13T23:59:42;40.35;;;23.45;;
